Time;durP1;ratioP1;P1;durP2;ratioP2;P2;SDS_P1;SDS_P2;PMS_P1;PMS_P2;Temp;Humidity;BMP_temperature;BMP_pressure;BME280_temperature;BME280_humidity;BME280_pressure;Samples;Min_cycle;Max_cycle;Signal;HPM_P1;HPM_P2
2020/12/22 00:06:24;;;;;;;5.15;3.30;;;10.00;99.90;;;;;;5074887;28;20384;-66
2020/12/22 00:08:52;;;;;;;5.53;2.63;;;10.00;99.90;;;;;;5076214;28;20150;-66
2020/12/22 00:11:25;;;;;;;4.55;3.03;;;10.00;99.90;;;;;;5075287;28;20048;-66
2020/12/22 00:13:53;;;;;;;3.78;2.33;;;10.10;99.90;;;;;;5076537;28;20045;-66
2020/12/22 00:16:45;;;;;;;6.68;3.00;;;10.20;99.90;;;;;;5075942;28;20093;-66
2020/12/22 00:19:17;;;;;;;4.30;2.55;;;10.10;99.90;;;;;;5057800;28;20499;-64
2020/12/22 00:21:45;;;;;;;4.38;2.30;;;10.20;99.90;;;;;;5073055;28;20041;-66
2020/12/22 00:24:28;;;;;;;3.42;2.17;;;10.20;99.90;;;;;;5074444;28;20043;-66
2020/12/22 00:31:24;;;;;;;3.70;2.40;;;10.20;99.90;;;;;;5075074;28;20036;-65
2020/12/22 00:33:56;;;;;;;2.75;1.55;;;10.30;99.90;;;;;;5055629;28;20473;-66
2020/12/22 00:36:23;;;;;;;2.70;1.70;;;10.30;99.90;;;;;;5055596;28;20064;-66
2020/12/22 00:38:52;;;;;;;2.70;1.73;;;10.30;99.90;;;;;;5055523;28;20473;-66
2020/12/22 00:41:30;;;;;;;2.10;1.33;;;10.30;99.90;;;;;;5070874;28;20052;-65
2020/12/22 00:44:02;;;;;;;2.97;1.83;;;10.40;99.90;;;;;;5055313;28;20045;-65
2020/12/22 00:47:01;;;;;;;3.08;1.88;;;10.40;99.90;;;;;;5075211;28;20543;-65
2020/12/22 00:53:54;;;;;;;1.95;1.13;;;10.40;99.90;;;;;;5074884;28;20043;-65
2020/12/22 00:56:26;;;;;;;1.98;1.27;;;10.40;99.90;;;;;;5055330;28;20072;-65
2020/12/22 00:58:55;;;;;;;3.20;2.03;;;10.40;99.90;;;;;;5055048;28;20473;-65
2020/12/22 01:01:30;;;;;;;3.13;1.92;;;10.50;99.90;;;;;;5071580;28;20084;-66
2020/12/22 01:04:01;;;;;;;2.75;1.63;;;10.50;99.90;;;;;;5054422;28;20122;-65
2020/12/22 01:06:57;;;;;;;3.33;1.77;;;10.50;99.90;;;;;;5069731;28;20476;-65
2020/12/22 01:13:55;;;;;;;2.95;1.52;;;10.50;99.90;;;;;;5073518;28;20052;-65
2020/12/22 01:16:27;;;;;;;2.47;1.60;;;10.60;99.90;;;;;;5053852;28;20045;-65
2020/12/22 01:18:59;;;;;;;2.63;1.52;;;10.50;99.90;;;;;;5072825;28;20046;-66
2020/12/22 01:21:32;;;;;;;2.70;1.33;;;10.60;99.90;;;;;;5073653;28;20044;-66
2020/12/22 01:24:16;;;;;;;2.22;1.08;;;10.70;99.90;;;;;;5053808;28;20480;-66
2020/12/22 01:26:57;;;;;;;2.63;1.30;;;10.60;99.90;;;;;;5070508;28;20040;-65
2020/12/22 01:29:36;;;;;;;2.47;1.58;;;10.70;99.90;;;;;;5073540;28;20167;-66
2020/12/22 01:32:08;;;;;;;2.90;1.70;;;10.70;99.90;;;;;;5073501;28;20053;-66
2020/12/22 01:34:39;;;;;;;3.92;2.00;;;10.70;99.90;;;;;;5073532;28;20048;-65
2020/12/22 01:37:13;;;;;;;3.50;2.10;;;10.70;99.90;;;;;;5069308;28;20045;-66
2020/12/22 01:43:58;;;;;;;3.30;2.08;;;10.80;99.90;;;;;;5068791;28;20062;-65
2020/12/22 01:46:30;;;;;;;3.03;1.77;;;10.70;99.90;;;;;;5073323;28;20111;-65
2020/12/22 01:48:58;;;;;;;2.80;1.70;;;10.80;99.90;;;;;;5066690;28;20044;-65
2020/12/22 01:51:28;;;;;;;2.53;1.67;;;10.90;99.90;;;;;;5073151;28;20040;-65
2020/12/22 01:53:56;;;;;;;2.22;1.50;;;10.80;99.90;;;;;;5073534;28;20086;-66
2020/12/22 01:56:27;;;;;;;2.47;1.50;;;10.80;99.90;;;;;;5069290;28;20045;-65
2020/12/22 01:58:58;;;;;;;1.73;1.10;;;10.90;99.90;;;;;;5073148;28;20036;-65
2020/12/22 02:01:29;;;;;;;1.77;1.00;;;10.90;99.90;;;;;;5046783;28;624455;-66
2020/12/22 02:03:57;;;;;;;1.83;1.10;;;10.90;99.90;;;;;;5063743;28;20082;-65
2020/12/22 02:06:31;;;;;;;1.40;0.75;;;10.90;99.90;;;;;;5074443;28;20064;-66
2020/12/22 02:08:58;;;;;;;1.02;0.60;;;10.90;99.90;;;;;;5073748;28;20048;-66
2020/12/22 02:11:30;;;;;;;0.60;0.50;;;10.90;99.90;;;;;;5073422;28;20045;-65
2020/12/22 02:14:04;;;;;;;0.73;0.40;;;10.90;99.90;;;;;;5069683;28;20123;-66
2020/12/22 02:16:37;;;;;;;0.65;0.35;;;11.00;99.90;;;;;;5068536;28;20044;-66
2020/12/22 02:19:03;;;;;;;0.30;0.30;;;11.00;99.90;;;;;;5069365;28;20048;-66
2020/12/22 02:21:54;;;;;;;0.90;0.30;;;11.00;99.90;;;;;;5056126;28;20041;-65
2020/12/22 02:24:34;;;;;;;2.40;0.32;;;11.00;99.90;;;;;;5056376;28;20036;-66
2020/12/22 02:27:02;;;;;;;0.20;0.20;;;11.00;99.90;;;;;;5058397;28;20077;-66
2020/12/22 02:29:41;;;;;;;0.43;0.30;;;11.00;99.90;;;;;;5073674;28;20127;-66
2020/12/22 02:32:13;;;;;;;0.40;0.30;;;11.10;99.90;;;;;;5058749;28;20056;-66
2020/12/22 02:34:38;;;;;;;0.98;0.20;;;11.00;99.90;;;;;;5069347;28;20040;-65
2020/12/22 02:41:32;;;;;;;0.20;0.20;;;11.00;99.90;;;;;;5072872;28;20075;-65
2020/12/22 02:44:06;;;;;;;0.63;0.30;;;11.10;99.90;;;;;;5067898;28;20099;-66
2020/12/22 02:46:38;;;;;;;0.93;0.57;;;11.10;99.90;;;;;;5069141;28;20079;-66
2020/12/22 02:49:05;;;;;;;1.50;0.70;;;11.10;99.90;;;;;;5068224;28;20114;-66
2020/12/22 02:51:56;;;;;;;1.52;0.77;;;11.10;99.90;;;;;;5072118;28;20041;-66
2020/12/22 02:54:36;;;;;;;0.98;0.60;;;11.10;99.90;;;;;;5073113;28;20044;-64
2020/12/22 03:04:25;;;;;;;2.50;1.20;;;11.10;99.90;;;;;;5055369;28;20048;-66
2020/12/22 03:07:02;;;;;;;2.85;1.35;;;11.00;99.90;;;;;;5073173;28;20045;-65
2020/12/22 03:09:42;;;;;;;1.70;1.10;;;11.10;99.90;;;;;;5055743;28;20047;-66
2020/12/22 03:12:20;;;;;;;3.03;1.70;;;11.10;99.90;;;;;;5057061;28;20124;-65
2020/12/22 03:14:48;;;;;;;2.30;1.25;;;11.10;99.90;;;;;;5058223;28;20045;-66
2020/12/22 03:17:24;;;;;;;2.83;1.33;;;11.10;99.90;;;;;;5073141;28;20120;-66
2020/12/22 03:24:07;;;;;;;2.42;1.20;;;11.20;99.90;;;;;;5067410;28;20623;-65
2020/12/22 03:26:42;;;;;;;4.03;1.33;;;11.20;99.90;;;;;;5072634;28;20048;-66
2020/12/22 03:29:10;;;;;;;2.22;1.30;;;11.20;99.90;;;;;;5066761;28;20426;-66
2020/12/22 03:31:44;;;;;;;1.38;0.88;;;11.20;99.90;;;;;;5054423;28;20499;-66
2020/12/22 03:34:12;;;;;;;1.15;0.77;;;11.30;99.90;;;;;;5056637;28;20037;-66
2020/12/22 03:36:44;;;;;;;1.60;0.90;;;11.20;99.90;;;;;;5073691;28;20044;-66
2020/12/22 03:39:11;;;;;;;1.60;0.65;;;11.30;99.90;;;;;;5064996;28;20043;-66
2020/12/22 03:41:40;;;;;;;1.52;0.80;;;11.30;99.90;;;;;;5070743;28;20097;-66
2020/12/22 03:44:13;;;;;;;1.40;0.80;;;11.20;99.90;;;;;;5076329;28;20040;-65
2020/12/22 03:46:48;;;;;;;2.58;1.20;;;11.30;99.90;;;;;;5071256;28;20373;-65
2020/12/22 03:49:18;;;;;;;2.50;1.00;;;11.30;99.90;;;;;;5076235;28;20068;-66
2020/12/22 03:51:48;;;;;;;2.35;1.30;;;11.30;99.90;;;;;;5076008;28;20493;-66
2020/12/22 03:54:20;;;;;;;3.30;1.38;;;11.30;99.90;;;;;;5056407;28;20037;-66
2020/12/22 03:56:46;;;;;;;6.30;1.90;;;11.30;99.90;;;;;;5071061;28;20135;-65
2020/12/22 03:59:19;;;;;;;4.85;2.15;;;11.30;99.90;;;;;;5076515;28;20075;-65
2020/12/22 04:01:49;;;;;;;3.88;1.88;;;11.30;99.90;;;;;;5074233;28;20053;-65
2020/12/22 04:04:23;;;;;;;5.00;2.45;;;11.40;99.90;;;;;;5074653;28;20079;-64
2020/12/22 04:06:52;;;;;;;9.35;3.00;;;11.30;99.90;;;;;;5072251;28;20094;-65
2020/12/22 04:16:54;;;;;;;5.38;2.03;;;11.50;99.90;;;;;;5074849;28;20490;-65
2020/12/22 04:19:19;;;;;;;6.35;2.13;;;11.40;99.90;;;;;;5070788;28;20518;-65
2020/12/22 04:21:48;;;;;;;5.05;2.25;;;11.50;99.90;;;;;;5075869;28;20173;-66
2020/12/22 04:24:19;;;;;;;7.68;2.78;;;11.50;99.90;;;;;;5075769;28;20048;-65
2020/12/22 04:26:55;;;;;;;8.55;2.50;;;11.60;99.90;;;;;;5073328;28;20048;-66
2020/12/22 04:29:23;;;;;;;6.25;2.00;;;11.50;99.90;;;;;;5055545;28;20052;-66
2020/12/22 04:31:54;;;;;;;8.55;2.35;;;11.60;99.90;;;;;;5075602;28;20040;-66
2020/12/22 04:34:25;;;;;;;6.82;1.85;;;11.60;99.90;;;;;;5074683;28;20048;-66
2020/12/22 04:36:53;;;;;;;9.45;2.42;;;11.60;99.90;;;;;;5075657;28;20064;-66
2020/12/22 04:39:22;;;;;;;9.80;2.20;;;11.50;99.90;;;;;;5069899;28;20037;-66
2020/12/22 04:41:57;;;;;;;9.52;1.67;;;11.70;99.90;;;;;;5070964;28;20048;-66
2020/12/22 04:44:26;;;;;;;5.03;1.60;;;11.70;99.90;;;;;;5074582;28;20086;-66
2020/12/22 04:46:54;;;;;;;6.40;2.17;;;11.70;99.90;;;;;;5074425;28;20048;-66
2020/12/22 04:49:28;;;;;;;9.05;2.08;;;11.70;99.90;;;;;;5069434;28;20045;-66
2020/12/22 04:51:55;;;;;;;12.38;2.28;;;11.70;99.90;;;;;;5075400;28;20480;-66
2020/12/22 04:54:27;;;;;;;12.77;2.45;;;11.70;99.90;;;;;;5074424;28;20350;-66
2020/12/22 04:56:59;;;;;;;11.05;2.70;;;11.70;99.90;;;;;;5054572;28;20044;-66
2020/12/22 05:14:48;;;;;;;6.15;2.00;;;11.80;99.90;;;;;;5070310;28;20063;-66
2020/12/22 05:17:39;;;;;;;5.20;1.08;;;11.80;99.90;;;;;;5072484;28;20043;-66
2020/12/22 05:20:22;;;;;;;7.15;1.30;;;11.80;99.90;;;;;;5059770;28;20123;-66
2020/12/22 05:27:01;;;;;;;4.03;1.10;;;11.80;99.90;;;;;;5074204;28;20120;-65
2020/12/22 05:29:28;;;;;;;8.02;1.50;;;11.80;99.90;;;;;;5068724;28;20127;-65
2020/12/22 05:32:01;;;;;;;7.43;1.45;;;11.80;99.90;;;;;;5074503;28;20044;-66
2020/12/22 05:34:31;;;;;;;5.18;1.35;;;11.70;99.90;;;;;;5067344;28;20036;-66
2020/12/22 05:37:08;;;;;;;2.72;0.90;;;11.80;99.90;;;;;;5073872;28;20127;-65
2020/12/22 05:39:41;;;;;;;4.72;1.20;;;11.80;99.90;;;;;;5068350;28;20036;-65
2020/12/22 05:42:19;;;;;;;3.80;1.27;;;11.80;99.90;;;;;;5073918;28;20048;-65
2020/12/22 05:45:20;;;;;;;7.55;1.50;;;11.80;99.90;;;;;;5074551;28;20052;-66
2020/12/22 05:47:55;;;;;;;5.80;1.27;;;11.70;99.90;;;;;;5073914;28;20048;-65
2020/12/22 05:51:13;;;;;;;9.00;2.53;;;11.70;99.90;;;;;;5073818;28;20381;-66
2020/12/22 05:54:07;;;;;;;3.97;1.67;;;11.80;99.90;;;;;;5068861;28;20052;-65
2020/12/22 05:57:07;;;;;;;5.13;1.23;;;11.80;99.90;;;;;;5070001;28;20043;-66
2020/12/22 05:59:45;;;;;;;10.15;1.25;;;11.70;99.90;;;;;;5069516;28;20484;-65
2020/12/22 06:02:29;;;;;;;6.47;1.65;;;11.70;99.90;;;;;;5073955;28;20040;-67
2020/12/22 06:09:39;;;;;;;5.65;1.15;;;11.70;99.90;;;;;;5073666;28;20051;-65
2020/12/22 06:19:44;;;;;;;4.35;1.02;;;11.80;99.90;;;;;;5069027;28;20044;-66
2020/12/22 06:22:18;;;;;;;2.58;0.75;;;11.80;99.90;;;;;;5072181;28;20115;-65
2020/12/22 06:24:59;;;;;;;2.45;0.90;;;11.70;99.90;;;;;;5073890;28;20048;-66
2020/12/22 06:34:48;;;;;;;4.53;0.98;;;11.70;99.90;;;;;;5053718;28;20522;-65
2020/12/22 06:37:15;;;;;;;5.82;1.45;;;11.70;99.90;;;;;;5073501;28;20040;-65
2020/12/22 06:39:47;;;;;;;6.45;1.13;;;11.80;99.90;;;;;;5073380;28;20047;-66
2020/12/22 06:42:32;;;;;;;8.02;1.70;;;11.70;99.90;;;;;;5067100;28;20124;-65
2020/12/22 06:49:00;;;;;;;11.18;1.60;;;11.70;99.90;;;;;;5067188;28;20036;-64
2020/12/22 06:52:00;;;;;;;7.57;1.63;;;11.80;99.90;;;;;;5068818;28;20044;-65
2020/12/22 06:54:34;;;;;;;7.38;1.15;;;11.80;99.90;;;;;;5073326;28;20044;-65
2020/12/22 06:57:05;;;;;;;8.52;1.42;;;11.80;99.90;;;;;;5069591;28;20101;-65
2020/12/22 06:59:50;;;;;;;7.43;1.42;;;11.80;99.90;;;;;;5073290;28;20431;-65
2020/12/22 07:02:38;;;;;;;5.10;1.73;;;11.80;99.90;;;;;;5068937;28;20044;-66
2020/12/22 07:09:49;;;;;;;7.97;1.83;;;11.80;99.90;;;;;;5074458;28;20067;-65
2020/12/22 07:19:35;;;;;;;10.00;1.80;;;11.80;99.90;;;;;;5071719;28;20044;-66
2020/12/22 07:22:31;;;;;;;9.98;1.83;;;11.80;99.90;;;;;;5076574;28;20071;-65
2020/12/22 07:25:11;;;;;;;5.50;1.60;;;11.80;99.90;;;;;;5060011;28;20067;-65
2020/12/22 07:27:51;;;;;;;7.38;1.20;;;11.80;99.90;;;;;;5060750;28;20120;-66
2020/12/22 07:37:11;;;;;;;8.57;1.60;;;11.80;99.90;;;;;;5076627;28;20052;-66
2020/12/22 07:39:40;;;;;;;6.82;2.35;;;11.90;99.90;;;;;;5076584;28;20472;-65
2020/12/22 07:42:15;;;;;;;8.32;2.10;;;11.80;99.90;;;;;;5072005;28;20071;-65
2020/12/22 07:48:56;;;;;;;7.85;1.17;;;11.80;99.90;;;;;;5074608;28;20034;-66
2020/12/22 07:51:26;;;;;;;12.23;2.47;;;11.70;99.90;;;;;;5075610;28;20074;-66
2020/12/22 07:54:05;;;;;;;8.57;2.95;;;11.70;99.90;;;;;;5076317;28;20036;-66
2020/12/22 07:57:00;;;;;;;7.68;1.98;;;11.80;99.90;;;;;;5076062;28;20423;-66
2020/12/22 07:59:31;;;;;;;7.68;2.42;;;11.70;99.90;;;;;;5075468;28;20055;-65
2020/12/22 08:02:00;;;;;;;9.68;2.58;;;11.80;99.90;;;;;;5075160;28;20037;-65
2020/12/22 08:04:34;;;;;;;11.10;2.45;;;11.70;99.90;;;;;;5076502;28;20064;-66
2020/12/22 08:07:08;;;;;;;15.80;2.40;;;11.60;99.90;;;;;;5074713;28;20048;-67
2020/12/22 08:09:49;;;;;;;9.48;2.22;;;11.70;99.90;;;;;;5070327;28;20102;-68
2020/12/22 08:16:34;;;;;;;14.05;2.50;;;11.60;99.90;;;;;;5075391;28;20056;-66
2020/12/22 08:19:01;;;;;;;;;;;11.40;99.90;;;;;;5076005;28;20041;-68
2020/12/22 08:21:31;;;;;;;11.27;2.95;;;11.20;99.90;;;;;;5070753;28;19927;-69
2020/12/22 08:24:03;;;;;;;4.68;1.60;;;11.10;99.90;;;;;;5071061;28;20037;-68
2020/12/22 08:26:30;;;;;;;6.15;1.42;;;10.90;99.90;;;;;;5075776;28;20388;-67
2020/12/22 08:29:03;;;;;;;3.92;1.65;;;10.80;99.90;;;;;;5074691;28;20068;-68
2020/12/22 08:31:39;;;;;;;5.32;1.30;;;10.70;99.90;;;;;;5075734;28;20071;-68
2020/12/22 08:34:13;;;;;;;1.48;0.77;;;10.60;99.90;;;;;;5070200;28;20076;-72
2020/12/22 08:36:46;;;;;;;2.75;1.02;;;10.60;99.90;;;;;;5075400;28;20074;-68
2020/12/22 08:39:37;;;;;;;2.70;1.40;;;10.50;99.90;;;;;;5075337;28;20036;-66
2020/12/22 08:42:11;;;;;;;2.38;1.23;;;10.50;99.90;;;;;;5060262;28;20036;-66
2020/12/22 08:44:52;;;;;;;3.17;1.17;;;10.40;99.90;;;;;;5075120;28;20045;-66
2020/12/22 08:47:50;;;;;;;2.60;1.35;;;10.30;99.90;;;;;;5075719;28;20112;-66
2020/12/22 08:54:06;;;;;;;6.82;2.97;;;10.20;99.90;;;;;;5074644;28;20509;-65
2020/12/22 08:56:34;;;;;;;9.55;2.90;;;10.00;99.90;;;;;;5055425;28;20057;-65
2020/12/22 08:59:07;;;;;;;7.40;2.67;;;10.00;99.90;;;;;;5069565;28;20481;-66
2020/12/22 09:01:40;;;;;;;;;;;10.00;99.90;;;;;;5075785;28;20436;-66
2020/12/22 09:08:25;;;;;;;9.20;3.47;;;9.90;99.90;;;;;;5066022;28;20491;-65
2020/12/22 09:11:38;;;;;;;4.10;2.33;;;9.80;99.90;;;;;;5073385;28;20072;-66
2020/12/22 09:14:22;;;;;;;9.23;3.47;;;9.90;99.90;;;;;;5071390;28;20488;-65
2020/12/22 09:17:09;;;;;;;8.95;3.70;;;9.90;99.90;;;;;;5070830;28;20036;-65
2020/12/22 09:19:51;;;;;;;9.82;4.50;;;9.90;99.90;;;;;;5075327;28;20044;-66
2020/12/22 09:22:25;;;;;;;10.20;3.15;;;9.90;99.90;;;;;;5058932;28;20122;-66
2020/12/22 09:29:12;;;;;;;8.07;3.03;;;9.90;99.90;;;;;;5073370;28;20487;-66
2020/12/22 09:31:44;;;;;;;11.57;2.95;;;9.90;99.90;;;;;;5068901;28;20055;-66
2020/12/22 09:34:16;;;;;;;8.27;2.30;;;9.90;99.90;;;;;;5074367;28;20113;-66
2020/12/22 09:36:42;;;;;;;6.88;2.00;;;9.90;99.90;;;;;;5068256;28;20091;-67
2020/12/22 09:39:17;;;;;;;12.75;3.15;;;10.00;99.90;;;;;;5074542;28;20492;-66
2020/12/22 09:41:50;;;;;;;8.23;2.42;;;9.90;99.90;;;;;;5074124;28;20472;-66
2020/12/22 09:44:16;;;;;;;9.23;2.55;;;9.90;99.90;;;;;;5070705;28;20049;-66
2020/12/22 09:46:47;;;;;;;8.77;2.83;;;9.90;99.90;;;;;;5074096;28;20162;-66
2020/12/22 09:49:15;;;;;;;9.77;2.65;;;9.90;99.50;;;;;;5071717;28;20048;-66
2020/12/22 09:51:52;;;;;;;6.68;2.85;;;9.90;99.90;;;;;;5069760;28;20041;-66
2020/12/22 09:54:19;;;;;;;5.60;2.25;;;9.90;99.90;;;;;;5073773;28;20044;-66
2020/12/22 09:56:48;;;;;;;7.25;2.20;;;9.90;99.10;;;;;;5073604;28;20496;-66
2020/12/22 09:59:20;;;;;;;4.35;1.83;;;9.90;99.60;;;;;;5073896;28;20041;-66
2020/12/22 10:01:50;;;;;;;5.03;1.35;;;9.80;99.80;;;;;;5068527;28;20048;-66
2020/12/22 10:04:37;;;;;;;4.85;1.60;;;9.90;99.90;;;;;;5074021;28;20056;-65
2020/12/22 10:14:24;;;;;;;8.20;2.03;;;9.90;98.80;;;;;;5072263;28;20047;-68
2020/12/22 10:17:20;;;;;;;6.85;1.95;;;10.10;99.50;;;;;;5072297;28;20037;-68
2020/12/22 10:19:55;;;;;;;8.55;1.90;;;10.00;99.90;;;;;;5073496;28;20123;-67
2020/12/22 10:22:52;;;;;;;4.47;1.33;;;9.90;99.70;;;;;;5073476;28;20072;-68
2020/12/22 10:25:24;;;;;;;6.68;1.30;;;10.00;99.70;;;;;;5072378;28;20122;-68
2020/12/22 10:31:48;;;;;;;3.28;1.23;;;10.00;99.70;;;;;;5073335;28;20127;-68
2020/12/22 10:34:23;;;;;;;4.72;0.88;;;10.00;99.50;;;;;;5073376;28;20040;-68
2020/12/22 10:36:52;;;;;;;7.20;1.15;;;9.90;99.80;;;;;;5072520;28;20139;-68
2020/12/22 10:39:22;;;;;;;2.90;0.52;;;9.90;99.60;;;;;;5070167;28;20162;-68
2020/12/22 10:41:52;;;;;;;3.92;0.60;;;9.80;99.90;;;;;;5068011;28;20052;-68
2020/12/22 10:44:38;;;;;;;2.35;0.60;;;9.80;99.90;;;;;;5068318;28;20476;-68
2020/12/22 10:47:20;;;;;;;3.58;0.75;;;9.70;99.90;;;;;;5069619;28;20048;-68
2020/12/22 10:54:19;;;;;;;3.90;1.15;;;9.60;99.90;;;;;;5072888;28;20490;-68
2020/12/22 10:56:52;;;;;;;4.32;1.05;;;9.60;99.90;;;;;;5067385;28;20495;-69
2020/12/22 10:59:20;;;;;;;2.65;0.88;;;9.60;99.90;;;;;;5062968;28;20044;-68
2020/12/22 11:01:52;;;;;;;8.23;1.30;;;9.60;99.90;;;;;;5073046;28;20047;-68
2020/12/22 11:04:18;;;;;;;6.20;1.13;;;9.60;99.90;;;;;;5071112;28;20053;-68
2020/12/22 11:07:19;;;;;;;2.70;1.10;;;9.70;99.90;;;;;;5072988;28;20078;-68
2020/12/22 11:09:54;;;;;;;5.78;1.23;;;9.70;99.90;;;;;;5069991;28;20056;-69
2020/12/22 11:12:26;;;;;;;6.18;1.38;;;9.70;99.90;;;;;;5073118;28;20032;-69
2020/12/22 11:15:08;;;;;;;7.78;1.67;;;9.70;99.90;;;;;;5072931;28;20045;-69
2020/12/22 11:21:54;;;;;;;4.40;1.45;;;9.70;99.90;;;;;;5072688;28;20044;-68
2020/12/22 11:32:33;;;;;;;9.10;1.23;;;9.50;99.90;;;;;;5072508;28;20040;-69
2020/12/22 11:39:44;;;;;;;8.43;1.30;;;9.50;99.90;;;;;;5072575;28;20035;-68
2020/12/22 11:42:36;;;;;;;5.28;1.30;;;9.60;99.90;;;;;;5068949;28;20119;-72
2020/12/22 11:45:08;;;;;;;6.00;1.23;;;9.60;99.90;;;;;;5072557;28;20044;-67
2020/12/22 11:51:54;;;;;;;6.28;1.45;;;9.60;99.90;;;;;;5070187;28;20086;-66
2020/12/22 11:54:28;;;;;;;6.65;1.02;;;9.60;99.90;;;;;;5074673;28;20076;-67
2020/12/22 11:57:00;;;;;;;8.65;1.40;;;9.70;99.70;;;;;;5075054;28;20048;-66
2020/12/22 11:59:26;;;;;;;7.80;1.30;;;9.60;99.60;;;;;;5075986;28;20484;-66
2020/12/22 12:01:52;;;;;;;4.00;0.60;;;9.60;99.40;;;;;;5076193;28;20045;-67
2020/12/22 12:04:27;;;;;;;3.22;0.60;;;9.70;99.90;;;;;;5066847;28;20057;-67
2020/12/22 12:06:56;;;;;;;5.20;1.10;;;9.80;99.90;;;;;;5074447;28;20047;-67
2020/12/22 12:09:31;;;;;;;7.18;1.50;;;9.80;99.70;;;;;;5056047;28;20045;-67
2020/12/22 12:12:43;;;;;;;3.08;0.82;;;9.80;98.50;;;;;;5073451;28;20114;-67
2020/12/22 12:19:32;;;;;;;6.78;1.33;;;9.70;98.80;;;;;;5068179;28;20570;-67
2020/12/22 12:22:03;;;;;;;3.95;0.95;;;9.70;97.20;;;;;;5070843;28;20094;-67
2020/12/22 12:24:30;;;;;;;8.23;1.30;;;9.60;96.70;;;;;;5075926;28;20040;-67
2020/12/22 12:27:03;;;;;;;4.18;0.90;;;9.60;97.00;;;;;;5075680;28;20097;-67
2020/12/22 12:29:30;;;;;;;5.60;0.80;;;9.70;97.10;;;;;;5070077;28;20044;-67
2020/12/22 12:31:57;;;;;;;5.57;1.20;;;9.60;97.80;;;;;;5075391;28;20064;-67
2020/12/22 12:34:26;;;;;;;3.38;1.30;;;9.60;97.60;;;;;;5075530;28;20044;-67
2020/12/22 12:36:57;;;;;;;3.78;1.02;;;9.60;98.10;;;;;;5070197;28;20040;-67
2020/12/22 12:39:25;;;;;;;4.90;0.98;;;9.70;98.30;;;;;;5073293;28;20536;-67
2020/12/22 12:41:55;;;;;;;2.60;0.88;;;9.60;98.20;;;;;;5069689;28;20119;-67
2020/12/22 12:44:26;;;;;;;5.28;0.98;;;9.60;98.20;;;;;;5074378;28;20079;-67
2020/12/22 12:46:56;;;;;;;5.70;0.90;;;9.60;98.70;;;;;;5075297;28;20048;-66
2020/12/22 12:49:27;;;;;;;8.68;1.80;;;9.60;97.80;;;;;;5075083;28;20041;-67
2020/12/22 12:51:55;;;;;;;7.00;1.33;;;9.60;97.90;;;;;;5075225;28;20079;-67
2020/12/22 12:54:25;;;;;;;6.18;1.02;;;9.60;98.60;;;;;;5073089;28;20439;-67
2020/12/22 12:57:16;;;;;;;6.72;1.52;;;9.60;98.50;;;;;;5075178;28;20048;-67
2020/12/22 13:00:00;;;;;;;8.95;1.33;;;9.60;97.80;;;;;;5057427;28;20527;-67
2020/12/22 13:09:46;;;;;;;5.43;1.30;;;9.50;97.60;;;;;;5074920;28;20503;-67
2020/12/22 13:12:38;;;;;;;5.75;1.20;;;9.50;97.50;;;;;;5072400;28;20044;-68
2020/12/22 13:15:10;;;;;;;11.32;1.77;;;9.50;97.50;;;;;;5059725;28;20040;-67
2020/12/22 13:17:38;;;;;;;8.52;2.38;;;9.50;97.60;;;;;;5060016;28;20060;-67
2020/12/22 13:24:27;;;;;;;4.93;1.23;;;9.40;97.30;;;;;;5074431;28;20083;-66
2020/12/22 13:26:57;;;;;;;8.20;1.35;;;9.40;97.00;;;;;;5074571;28;20090;-67
2020/12/22 13:29:29;;;;;;;5.03;1.00;;;9.40;96.50;;;;;;5073855;28;20037;-67
2020/12/22 13:31:58;;;;;;;3.05;0.90;;;9.40;97.10;;;;;;5069870;28;20121;-67
2020/12/22 13:34:35;;;;;;;7.93;1.92;;;9.40;97.50;;;;;;5075095;28;20047;-67
2020/12/22 13:37:01;;;;;;;3.22;1.10;;;9.40;97.20;;;;;;5054493;28;20037;-67
2020/12/22 13:39:31;;;;;;;3.00;0.88;;;9.40;96.60;;;;;;5074334;28;20055;-68
2020/12/22 13:42:01;;;;;;;4.05;1.25;;;9.30;96.60;;;;;;5073148;28;20048;-67
2020/12/22 13:44:30;;;;;;;3.33;1.08;;;9.30;97.00;;;;;;5074323;28;20076;-68
2020/12/22 13:47:11;;;;;;;4.75;1.02;;;9.30;95.60;;;;;;5074336;28;20044;-67
2020/12/22 13:49:38;;;;;;;4.75;0.93;;;9.30;96.30;;;;;;5072677;28;20051;-66
2020/12/22 13:52:05;;;;;;;3.58;0.80;;;9.30;95.50;;;;;;5074377;28;20049;-66
2020/12/22 13:54:35;;;;;;;6.28;1.08;;;9.30;95.80;;;;;;5054186;28;20048;-66
2020/12/22 13:57:04;;;;;;;7.20;1.20;;;9.20;95.40;;;;;;5069425;28;20047;-66
2020/12/22 13:59:33;;;;;;;5.82;1.15;;;9.20;95.10;;;;;;5063806;28;20049;-67
2020/12/22 14:02:05;;;;;;;7.85;1.15;;;9.10;95.70;;;;;;5068407;28;20041;-67
2020/12/22 14:04:34;;;;;;;6.50;1.10;;;9.20;95.90;;;;;;5072978;28;20046;-67
2020/12/22 14:07:04;;;;;;;9.68;0.98;;;9.20;96.10;;;;;;5068985;28;20040;-67
2020/12/22 14:09:36;;;;;;;5.93;0.80;;;9.20;96.80;;;;;;5054190;28;20064;-68
2020/12/22 14:12:07;;;;;;;1.65;0.65;;;9.20;96.50;;;;;;5085920;28;20056;-67
2020/12/22 14:14:34;;;;;;;3.25;0.77;;;9.30;97.40;;;;;;5069621;28;20503;-67
2020/12/22 14:17:05;;;;;;;3.40;0.80;;;9.30;97.60;;;;;;5068783;28;20041;-67
2020/12/22 14:19:37;;;;;;;6.97;1.35;;;9.20;96.80;;;;;;5068683;28;20040;-67
2020/12/22 14:22:07;;;;;;;3.75;0.90;;;9.30;96.20;;;;;;5068919;28;20472;-68
2020/12/22 14:24:50;;;;;;;3.55;0.98;;;9.30;97.40;;;;;;5072355;28;20048;-67
2020/12/22 14:27:38;;;;;;;5.38;1.13;;;9.30;96.80;;;;;;5055341;28;20072;-70
2020/12/22 14:30:25;;;;;;;2.50;0.73;;;9.30;97.00;;;;;;5056090;28;20048;-66
2020/12/22 14:32:57;;;;;;;8.18;0.95;;;9.20;95.90;;;;;;5073339;28;20536;-65
2020/12/22 14:39:42;;;;;;;3.55;1.17;;;9.20;95.80;;;;;;5073066;28;20031;-71
2020/12/22 14:42:14;;;;;;;2.22;0.70;;;9.10;95.10;;;;;;5068075;28;20118;-66
2020/12/22 14:44:51;;;;;;;4.60;0.80;;;9.10;96.20;;;;;;5073224;28;20093;-66
2020/12/22 14:47:37;;;;;;;5.05;0.77;;;9.10;94.90;;;;;;5073151;28;20036;-66
2020/12/22 14:50:26;;;;;;;3.60;0.60;;;9.10;95.00;;;;;;5073637;28;20047;-74
2020/12/22 14:52:58;;;;;;;6.03;1.40;;;9.10;95.70;;;;;;5073526;28;20036;-73
2020/12/22 14:59:44;;;;;;;7.63;0.73;;;9.10;95.40;;;;;;5072820;28;20035;-72
2020/12/22 15:02:16;;;;;;;4.07;0.90;;;9.00;95.00;;;;;;5067389;28;20040;-72
2020/12/22 15:04:41;;;;;;;3.60;0.75;;;9.10;95.50;;;;;;5072287;28;20055;-74
2020/12/22 15:07:10;;;;;;;4.47;0.98;;;9.00;95.00;;;;;;5072979;28;20111;-73
2020/12/22 15:09:39;;;;;;;4.60;1.45;;;9.00;96.40;;;;;;5073337;28;20072;-74
2020/12/22 15:12:07;;;;;;;3.83;0.95;;;9.00;95.40;;;;;;5073135;28;20048;-71
2020/12/22 15:14:37;;;;;;;2.85;1.00;;;9.00;97.70;;;;;;5072931;28;20090;-74
2020/12/22 15:17:10;;;;;;;4.00;1.15;;;9.00;96.30;;;;;;5068460;28;20056;-72
2020/12/22 15:19:42;;;;;;;4.05;0.80;;;9.00;95.90;;;;;;5072949;28;20064;-73
2020/12/22 15:22:32;;;;;;;4.38;0.88;;;9.00;96.40;;;;;;5064906;28;20045;-74
2020/12/22 15:25:26;;;;;;;2.45;0.85;;;9.00;96.80;;;;;;5072794;28;20484;-73
2020/12/22 15:31:38;;;;;;;8.98;1.73;;;9.00;96.30;;;;;;5076002;28;20812;-72
2020/12/22 15:34:41;;;;;;;4.57;1.05;;;8.90;94.60;;;;;;5076541;28;20499;-71
2020/12/22 15:37:16;;;;;;;6.32;1.50;;;8.90;95.70;;;;;;5056769;28;20037;-71
2020/12/22 15:39:44;;;;;;;13.38;1.30;;;8.90;96.30;;;;;;5056050;28;20033;-73
2020/12/22 15:42:16;;;;;;;6.05;1.60;;;8.80;94.60;;;;;;5055425;28;20378;-73
2020/12/22 15:44:43;;;;;;;9.10;1.45;;;8.80;95.00;;;;;;5056630;28;20040;-69
2020/12/22 15:47:17;;;;;;;6.90;1.10;;;8.80;94.50;;;;;;5072454;28;20040;-71
2020/12/22 15:49:42;;;;;;;7.53;1.60;;;8.80;94.80;;;;;;5075599;28;20068;-73
2020/12/22 15:52:14;;;;;;;6.82;1.40;;;8.80;96.00;;;;;;5076237;28;20476;-71
2020/12/22 15:54:43;;;;;;;12.38;1.50;;;8.70;93.90;;;;;;5075273;28;20041;-73
2020/12/22 15:57:14;;;;;;;6.63;0.95;;;8.60;93.70;;;;;;5074902;28;20412;-72
2020/12/22 15:59:54;;;;;;;2.95;0.93;;;8.70;94.30;;;;;;5057168;28;20037;-66
2020/12/22 16:02:22;;;;;;;3.08;0.70;;;8.60;95.60;;;;;;5074433;28;20044;-69
2020/12/22 16:04:49;;;;;;;3.65;0.93;;;8.50;95.50;;;;;;5074544;28;20110;-69
2020/12/22 16:07:49;;;;;;;5.57;1.35;;;8.50;95.30;;;;;;5076119;28;20049;-68
2020/12/22 16:10:23;;;;;;;5.07;1.30;;;8.40;95.70;;;;;;5053838;28;20540;-67
2020/12/22 16:12:49;;;;;;;4.07;0.90;;;8.40;96.30;;;;;;5053494;28;20056;-68
2020/12/22 16:19:44;;;;;;;2.65;0.80;;;8.30;96.20;;;;;;5053351;28;20145;-67
2020/12/22 16:22:16;;;;;;;4.25;1.05;;;8.20;96.20;;;;;;5047096;28;20045;-67
2020/12/22 16:24:49;;;;;;;1.33;0.55;;;8.10;96.30;;;;;;5038518;28;20185;-68
2020/12/22 16:27:16;;;;;;;4.67;0.90;;;8.10;96.40;;;;;;5071439;28;20078;-66
2020/12/22 16:29:43;;;;;;;4.38;1.00;;;8.10;96.60;;;;;;5076392;28;20074;-64
2020/12/22 16:32:13;;;;;;;4.55;0.93;;;8.00;96.30;;;;;;5072056;28;20051;-65
2020/12/22 16:35:04;;;;;;;9.68;1.63;;;8.10;96.50;;;;;;5070204;28;20045;-65
2020/12/22 16:38:01;;;;;;;3.63;0.90;;;7.90;96.70;;;;;;5056887;28;20048;-68
2020/12/22 16:40:35;;;;;;;5.03;0.98;;;7.90;96.70;;;;;;5075829;28;20043;-65
2020/12/22 16:47:19;;;;;;;5.90;1.25;;;7.80;96.90;;;;;;5075085;28;20036;-65
2020/12/22 16:49:50;;;;;;;5.32;1.38;;;7.80;96.90;;;;;;5072587;28;20408;-66